Time;durP1;ratioP1;P1;durP2;ratioP2;P2;SDS_P1;SDS_P2;PMS_P1;PMS_P2;Temp;Humidity;BMP_temperature;BMP_pressure;BME280_temperature;BME280_humidity;BME280_pressure;Samples;Min_cycle;Max_cycle;Signal;HPM_P1;HPM_P2
2022/04/13 00:02:01;;;;;;;17.45;9.18;;;14.80;74.70;;;;;;5011496;28;20038;-76
2022/04/13 00:04:26;;;;;;;18.08;10.65;;;14.80;74.80;;;;;;5010906;28;20129;-76
2022/04/13 00:06:52;;;;;;;14.70;8.93;;;14.80;74.90;;;;;;5014277;28;20496;-76
2022/04/13 00:09:18;;;;;;;15.23;9.43;;;14.80;75.00;;;;;;5008470;28;20046;-75
2022/04/13 00:11:44;;;;;;;19.92;8.95;;;14.80;75.00;;;;;;5008788;28;20048;-75
2022/04/13 00:14:10;;;;;;;15.88;9.32;;;14.70;75.40;;;;;;5013025;28;20025;-76
2022/04/13 00:16:36;;;;;;;14.88;9.23;;;14.70;75.40;;;;;;5003503;28;20033;-75
2022/04/13 00:19:01;;;;;;;16.65;9.63;;;14.70;75.50;;;;;;5003869;28;20077;-76
2022/04/13 00:21:27;;;;;;;15.10;8.93;;;14.70;75.60;;;;;;5015779;28;20040;-76
2022/04/13 00:23:53;;;;;;;16.90;9.30;;;14.60;75.60;;;;;;5006109;28;20102;-76
2022/04/13 00:26:18;;;;;;;19.33;9.73;;;14.60;75.70;;;;;;5007696;28;20195;-75
2022/04/13 00:28:44;;;;;;;14.65;9.23;;;14.60;75.80;;;;;;5012365;28;20410;-76
2022/04/13 00:31:10;;;;;;;17.23;10.23;;;14.60;75.90;;;;;;5008264;28;20107;-76
2022/04/13 00:33:35;;;;;;;16.48;9.93;;;14.60;75.90;;;;;;5013883;28;20048;-75
2022/04/13 00:36:01;;;;;;;12.95;9.15;;;14.60;75.90;;;;;;5004701;28;20087;-75
2022/04/13 00:38:27;;;;;;;15.43;10.40;;;14.60;75.90;;;;;;5011340;28;20384;-74
2022/04/13 00:40:52;;;;;;;16.73;9.63;;;14.60;76.00;;;;;;5007274;28;20397;-76
2022/04/13 00:43:18;;;;;;;17.70;9.40;;;14.60;76.10;;;;;;5013599;28;20029;-77
2022/04/13 00:45:50;;;;;;;14.80;9.88;;;14.60;76.20;;;;;;5014870;28;20535;-76
2022/04/13 00:48:37;;;;;;;15.77;9.90;;;14.60;76.20;;;;;;5013189;28;20033;-76
2022/04/13 00:51:03;;;;;;;15.73;9.95;;;14.60;76.20;;;;;;5014588;28;20040;-75
2022/04/13 00:53:30;;;;;;;15.23;9.50;;;14.50;76.30;;;;;;5012081;28;20041;-75
2022/04/13 00:55:58;;;;;;;18.75;11.32;;;14.50;76.50;;;;;;5004612;28;20042;-76
2022/04/13 00:58:32;;;;;;;15.85;9.90;;;14.50;76.70;;;;;;5010681;28;20044;-76
2022/04/13 01:01:00;;;;;;;;;;;14.40;77.00;;;;;;5010534;28;20362;-75
2022/04/13 01:03:27;;;;;;;17.08;10.10;;;14.40;77.00;;;;;;5005825;28;19914;-75
2022/04/13 01:05:54;;;;;;;16.80;9.85;;;14.40;77.00;;;;;;5000998;28;20346;-74
2022/04/13 01:08:20;;;;;;;16.27;9.95;;;14.50;77.10;;;;;;5016678;28;20038;-76
2022/04/13 01:10:48;;;;;;;14.13;9.73;;;14.40;77.20;;;;;;4992418;28;20037;-76
2022/04/13 01:13:16;;;;;;;14.75;10.00;;;14.50;77.20;;;;;;5004397;28;20053;-75
2022/04/13 01:15:42;;;;;;;18.48;10.68;;;14.50;77.20;;;;;;4999263;28;20536;-77
2022/04/13 01:18:08;;;;;;;14.00;10.68;;;14.40;77.20;;;;;;5000618;28;20030;-77
2022/04/13 01:20:35;;;;;;;16.83;10.38;;;14.50;77.30;;;;;;5008293;28;20037;-76
2022/04/13 01:23:01;;;;;;;13.98;10.00;;;14.40;77.40;;;;;;5002462;28;20037;-77
2022/04/13 01:25:30;;;;;;;19.33;10.52;;;14.50;77.30;;;;;;5010933;28;20117;-77
2022/04/13 01:27:55;;;;;;;17.63;10.98;;;14.50;77.30;;;;;;5000881;28;20524;-78
2022/04/13 01:30:24;;;;;;;20.23;11.15;;;14.50;77.30;;;;;;5010341;28;21005;-77
2022/04/13 01:32:53;;;;;;;14.73;10.82;;;14.40;77.30;;;;;;5005879;28;20030;-75
2022/04/13 01:35:19;;;;;;;14.52;9.48;;;14.40;77.40;;;;;;5007562;28;20390;-76
2022/04/13 01:37:44;;;;;;;15.70;10.18;;;14.40;77.40;;;;;;5000273;28;20065;-77
2022/04/13 01:40:10;;;;;;;16.90;10.32;;;14.40;77.50;;;;;;5006630;28;20041;-76
2022/04/13 01:42:37;;;;;;;13.90;10.25;;;14.30;77.50;;;;;;5005584;28;20034;-76
2022/04/13 01:45:03;;;;;;;16.60;10.77;;;14.40;77.60;;;;;;5005507;28;20033;-76
2022/04/13 01:47:29;;;;;;;15.43;10.50;;;14.30;77.60;;;;;;5005662;28;20034;-77
2022/04/13 01:49:56;;;;;;;18.80;11.85;;;14.30;77.70;;;;;;5014182;28;20643;-76
2022/04/13 01:52:22;;;;;;;13.73;10.13;;;14.30;77.80;;;;;;5006977;28;20085;-76
2022/04/13 01:54:47;;;;;;;15.27;10.52;;;14.30;77.90;;;;;;5009153;28;20022;-76
2022/04/13 01:57:13;;;;;;;17.17;10.68;;;14.30;77.90;;;;;;5005963;28;20190;-77
2022/04/13 01:59:39;;;;;;;15.73;11.20;;;14.30;77.90;;;;;;5011229;28;20041;-76
2022/04/13 02:02:05;;;;;;;14.48;10.35;;;14.30;77.90;;;;;;5011351;28;20516;-76
2022/04/13 02:04:31;;;;;;;16.48;11.15;;;14.20;78.00;;;;;;5008121;28;20069;-76
2022/04/13 02:06:57;;;;;;;15.65;10.75;;;14.10;78.00;;;;;;5009094;28;20041;-76
2022/04/13 02:09:23;;;;;;;17.40;10.82;;;14.10;78.10;;;;;;4998403;28;20330;-76
2022/04/13 02:11:49;;;;;;;15.88;10.88;;;14.10;78.10;;;;;;5008171;28;20033;-76
2022/04/13 02:14:15;;;;;;;17.80;11.05;;;14.10;78.10;;;;;;5001640;28;20054;-76
2022/04/13 02:16:41;;;;;;;20.25;11.73;;;14.10;78.20;;;;;;5007766;28;20590;-76
2022/04/13 02:19:07;;;;;;;16.20;10.38;;;13.90;78.20;;;;;;5010560;28;20037;-76
2022/04/13 02:21:34;;;;;;;15.50;10.73;;;13.80;78.50;;;;;;5008521;28;20034;-76
2022/04/13 02:24:00;;;;;;;15.77;11.57;;;13.70;78.70;;;;;;5012545;28;20148;-76
2022/04/13 02:26:26;;;;;;;17.90;11.75;;;13.70;79.00;;;;;;4997378;28;20390;-76
2022/04/13 02:28:53;;;;;;;17.10;11.05;;;13.60;79.10;;;;;;5012629;28;20056;-75
2022/04/13 02:31:18;;;;;;;15.82;10.32;;;13.60;79.30;;;;;;5007498;28;20084;-75
2022/04/13 02:33:44;;;;;;;18.33;11.43;;;13.50;79.50;;;;;;5005593;28;20065;-76
2022/04/13 02:36:11;;;;;;;17.02;10.57;;;13.50;79.60;;;;;;5003627;28;20057;-78
2022/04/13 02:38:36;;;;;;;17.02;10.98;;;13.40;79.70;;;;;;5009733;28;20065;-77
2022/04/13 02:41:02;;;;;;;17.00;11.00;;;13.30;79.90;;;;;;5007389;28;20041;-76
2022/04/13 02:43:28;;;;;;;16.42;10.48;;;13.30;80.10;;;;;;5009578;28;20033;-74
2022/04/13 02:45:54;;;;;;;17.02;10.95;;;13.30;80.20;;;;;;5030697;28;20045;-76
2022/04/13 02:48:21;;;;;;;15.40;11.15;;;13.20;80.30;;;;;;5025529;28;20037;-75
2022/04/13 02:50:48;;;;;;;18.25;11.93;;;13.20;80.40;;;;;;5010715;28;20033;-75
2022/04/13 02:53:14;;;;;;;15.77;11.10;;;13.10;80.60;;;;;;5008555;28;20427;-77
2022/04/13 02:55:40;;;;;;;20.95;12.02;;;13.10;80.70;;;;;;5010825;28;20037;-76
2022/04/13 02:58:06;;;;;;;19.27;12.20;;;13.10;80.90;;;;;;5005488;28;20045;-76
2022/04/13 03:00:31;;;;;;;16.75;12.10;;;13.10;81.00;;;;;;5008370;28;20049;-76
2022/04/13 03:02:57;;;;;;;18.15;12.23;;;13.10;81.00;;;;;;5007745;28;20033;-76
2022/04/13 03:05:23;;;;;;;16.55;12.35;;;13.10;81.00;;;;;;5007766;28;20173;-77
2022/04/13 03:07:48;;;;;;;15.18;11.95;;;13.10;81.10;;;;;;5008322;28;20389;-77
2022/04/13 03:10:14;;;;;;;17.45;11.63;;;13.10;81.20;;;;;;5015625;28;20128;-76
2022/04/13 03:12:42;;;;;;;18.48;12.00;;;13.10;81.30;;;;;;5012653;28;20033;-75
2022/04/13 03:15:09;;;;;;;17.33;11.85;;;13.10;81.30;;;;;;5011395;28;20025;-76
2022/04/13 03:17:34;;;;;;;18.92;12.07;;;13.10;81.40;;;;;;5002194;28;20038;-76
2022/04/13 03:20:00;;;;;;;16.80;12.10;;;13.00;81.50;;;;;;5002655;28;20474;-77
2022/04/13 03:22:26;;;;;;;19.85;12.57;;;13.00;81.60;;;;;;5006372;28;20050;-75
2022/04/13 03:24:52;;;;;;;18.17;11.80;;;13.00;81.80;;;;;;5007095;28;20397;-76
2022/04/13 03:27:20;;;;;;;17.13;12.52;;;13.00;81.70;;;;;;5009315;28;20540;-76
2022/04/13 03:29:46;;;;;;;20.48;12.60;;;13.00;81.70;;;;;;5011757;28;20049;-77
2022/04/13 03:32:12;;;;;;;16.92;12.13;;;12.90;81.80;;;;;;5011991;28;20388;-77
2022/04/13 03:34:38;;;;;;;16.48;11.90;;;12.90;81.90;;;;;;5018786;28;20038;-76
2022/04/13 03:37:04;;;;;;;16.38;11.38;;;12.90;81.80;;;;;;5009224;28;20029;-77
2022/04/13 03:39:29;;;;;;;20.42;13.00;;;12.90;81.90;;;;;;4999885;28;20049;-76
2022/04/13 03:41:55;;;;;;;16.90;12.05;;;12.90;81.90;;;;;;5011168;28;20038;-77
2022/04/13 03:44:22;;;;;;;16.60;11.95;;;12.80;81.90;;;;;;5004552;28;20037;-74
2022/04/13 03:46:48;;;;;;;18.45;11.43;;;12.80;81.80;;;;;;5004246;28;20230;-77
2022/04/13 03:49:14;;;;;;;15.30;11.40;;;12.80;81.90;;;;;;5004183;28;20045;-77
2022/04/13 03:51:40;;;;;;;18.33;11.65;;;12.70;81.90;;;;;;5004755;28;20119;-77
2022/04/13 03:54:06;;;;;;;15.65;11.45;;;12.70;82.00;;;;;;5004124;28;20037;-77
2022/04/13 03:56:33;;;;;;;16.60;11.50;;;12.60;82.10;;;;;;5002403;28;20033;-76
2022/04/13 03:59:00;;;;;;;18.00;12.65;;;12.60;82.30;;;;;;5008893;28;20033;-77
2022/04/13 04:01:26;;;;;;;20.40;11.77;;;12.60;82.40;;;;;;5008180;28;20137;-76
2022/04/13 04:03:53;;;;;;;19.17;13.32;;;12.60;82.50;;;;;;5002155;28;20033;-76
2022/04/13 04:06:19;;;;;;;18.70;12.50;;;12.60;82.50;;;;;;5010334;28;20557;-75
2022/04/13 04:08:45;;;;;;;19.85;12.93;;;12.50;82.40;;;;;;5010099;28;20030;-76
2022/04/13 04:11:11;;;;;;;20.00;12.35;;;12.50;82.40;;;;;;5000233;28;20033;-76
2022/04/13 04:13:36;;;;;;;18.38;12.57;;;12.40;82.40;;;;;;5005602;28;20037;-75
2022/04/13 04:16:03;;;;;;;19.73;12.73;;;12.40;82.40;;;;;;5013953;28;20104;-76
2022/04/13 04:18:28;;;;;;;16.38;12.52;;;12.40;82.40;;;;;;5016829;28;20076;-74
2022/04/13 04:20:54;;;;;;;16.75;12.57;;;12.40;82.50;;;;;;5029375;28;20124;-75
2022/04/13 04:23:20;;;;;;;17.73;12.85;;;12.30;82.70;;;;;;5015808;28;20049;-75
2022/04/13 04:25:45;;;;;;;17.10;13.07;;;12.30;82.80;;;;;;5006872;28;20038;-75
2022/04/13 04:28:11;;;;;;;23.98;13.93;;;12.30;82.90;;;;;;5007541;28;20124;-75
2022/04/13 04:30:41;;;;;;;19.30;14.02;;;12.20;83.00;;;;;;5013013;28;20088;-74
2022/04/13 04:33:08;;;;;;;18.35;13.15;;;12.20;83.10;;;;;;5008293;28;21037;-75
2022/04/13 04:35:34;;;;;;;19.90;13.15;;;12.20;83.10;;;;;;5017522;28;20041;-75
2022/04/13 04:38:02;;;;;;;19.45;13.45;;;12.30;83.20;;;;;;5010387;28;20072;-75
2022/04/13 04:40:28;;;;;;;24.35;14.38;;;12.20;83.30;;;;;;5012824;28;20581;-77
2022/04/13 04:42:54;;;;;;;18.48;12.52;;;12.20;83.50;;;;;;5017024;28;20133;-74
2022/04/13 04:45:21;;;;;;;18.52;13.25;;;12.20;83.50;;;;;;5009348;28;20420;-75
2022/04/13 04:47:50;;;;;;;21.00;13.02;;;12.20;83.40;;;;;;5005051;28;20045;-76
2022/04/13 04:50:17;;;;;;;17.58;13.52;;;12.10;83.30;;;;;;5007496;28;20050;-76
2022/04/13 04:52:44;;;;;;;19.35;13.60;;;12.10;83.40;;;;;;5009539;28;20037;-76
2022/04/13 04:55:11;;;;;;;18.90;13.27;;;12.10;83.60;;;;;;5007628;28;20064;-77
2022/04/13 04:57:37;;;;;;;18.70;13.40;;;12.10;83.80;;;;;;5014360;28;20485;-76
2022/04/13 05:00:05;;;;;;;17.58;12.10;;;12.10;83.80;;;;;;5009041;28;20042;-76
2022/04/13 05:02:31;;;;;;;18.08;12.65;;;12.10;83.80;;;;;;5005817;28;20033;-76
2022/04/13 05:04:57;;;;;;;17.35;12.57;;;12.10;83.90;;;;;;5005754;28;20466;-76
2022/04/13 05:07:23;;;;;;;17.42;12.85;;;12.10;83.90;;;;;;5008521;28;20089;-75
2022/04/13 05:09:48;;;;;;;19.50;12.77;;;12.10;83.80;;;;;;5006525;28;20125;-76
2022/04/13 05:12:14;;;;;;;18.63;13.65;;;12.10;83.90;;;;;;5016729;28;20512;-76
2022/04/13 05:14:39;;;;;;;19.63;13.27;;;12.10;84.00;;;;;;5006684;28;20041;-76
2022/04/13 05:17:05;;;;;;;21.23;13.43;;;12.20;84.10;;;;;;5012186;28;20038;-75
2022/04/13 05:19:33;;;;;;;19.50;13.00;;;12.10;84.10;;;;;;5008763;28;20103;-74
2022/04/13 05:21:58;;;;;;;18.20;12.73;;;12.20;84.20;;;;;;5006942;28;20105;-76
2022/04/13 05:24:24;;;;;;;20.95;13.70;;;12.20;84.10;;;;;;4999830;28;20041;-77
2022/04/13 05:26:50;;;;;;;24.13;13.73;;;12.20;84.30;;;;;;5021987;28;20093;-77
2022/04/13 05:29:15;;;;;;;18.52;13.43;;;12.20;84.70;;;;;;5003853;28;20041;-77
2022/04/13 05:31:41;;;;;;;19.35;13.00;;;12.30;84.60;;;;;;5014269;28;20045;-76
2022/04/13 05:34:08;;;;;;;21.65;14.75;;;12.30;84.50;;;;;;5008870;28;20496;-76
2022/04/13 05:36:34;;;;;;;20.42;12.93;;;12.30;84.40;;;;;;5006524;28;20426;-76
2022/04/13 05:38:59;;;;;;;20.08;13.13;;;12.40;84.40;;;;;;5009301;28;20046;-75
2022/04/13 05:41:25;;;;;;;18.90;13.73;;;12.40;84.40;;;;;;5011490;28;21358;-75
2022/04/13 05:43:51;;;;;;;20.17;13.82;;;12.40;84.40;;;;;;5004475;28;20045;-76
2022/04/13 05:46:17;;;;;;;18.08;12.77;;;12.40;84.60;;;;;;5006048;28;20042;-76
2022/04/13 05:48:42;;;;;;;17.48;12.23;;;12.40;84.60;;;;;;5006720;28;20162;-75
2022/04/13 05:51:09;;;;;;;18.67;12.90;;;12.50;84.60;;;;;;5006550;28;20346;-75
2022/04/13 05:53:35;;;;;;;17.42;12.63;;;12.50;84.50;;;;;;4999740;28;20053;-75
2022/04/13 05:56:01;;;;;;;17.08;12.95;;;12.60;84.50;;;;;;5005930;28;20464;-76
2022/04/13 05:58:27;;;;;;;17.38;12.52;;;12.60;84.50;;;;;;4999739;28;20045;-75
2022/04/13 06:00:54;;;;;;;20.15;12.05;;;12.60;84.50;;;;;;5019166;28;20049;-75
2022/04/13 06:03:20;;;;;;;19.77;13.82;;;12.50;84.50;;;;;;5015813;28;20127;-75
2022/04/13 06:05:46;;;;;;;19.35;12.18;;;12.60;84.50;;;;;;5005436;28;20042;-75
2022/04/13 06:08:13;;;;;;;16.02;11.90;;;12.60;84.60;;;;;;5002432;28;20053;-74
2022/04/13 06:10:38;;;;;;;19.48;12.82;;;12.70;84.70;;;;;;5004745;28;20041;-76
2022/04/13 06:13:04;;;;;;;17.92;12.13;;;12.80;84.60;;;;;;5000847;28;20060;-78
2022/04/13 06:15:31;;;;;;;16.23;12.52;;;12.90;84.60;;;;;;5003600;28;20631;-75
2022/04/13 06:17:58;;;;;;;24.02;12.00;;;12.90;84.60;;;;;;5008601;28;20235;-76
2022/04/13 06:20:24;;;;;;;17.77;11.18;;;12.90;84.50;;;;;;5004873;28;20041;-75
2022/04/13 06:22:49;;;;;;;17.85;11.15;;;13.00;84.70;;;;;;4999426;28;20393;-71
2022/04/13 06:25:15;;;;;;;16.15;11.90;;;13.10;84.70;;;;;;4997202;28;20592;-71
2022/04/13 06:27:41;;;;;;;19.20;11.82;;;13.30;84.50;;;;;;5001793;28;20057;-71
2022/04/13 06:30:09;;;;;;;19.65;11.73;;;13.40;84.20;;;;;;5004027;28;20486;-71
2022/04/13 06:32:37;;;;;;;19.02;11.90;;;13.50;83.90;;;;;;5000926;28;20099;-71
2022/04/13 06:35:05;;;;;;;18.63;11.25;;;13.60;83.70;;;;;;5003246;28;20180;-70
2022/04/13 06:37:30;;;;;;;16.90;12.05;;;13.60;83.20;;;;;;5009317;28;20377;-71
2022/04/13 06:39:56;;;;;;;17.88;11.80;;;13.70;83.20;;;;;;5006573;28;20045;-71
2022/04/13 06:42:22;;;;;;;19.65;11.57;;;13.80;83.20;;;;;;5001459;28;20113;-69
2022/04/13 06:44:54;;;;;;;17.33;11.82;;;13.90;83.10;;;;;;5015945;28;20068;-71
2022/04/13 06:47:20;;;;;;;19.13;12.30;;;14.00;83.10;;;;;;5000259;28;20037;-71
2022/04/13 06:49:47;;;;;;;18.92;11.80;;;14.10;82.70;;;;;;4999587;28;20720;-70
2022/04/13 06:52:13;;;;;;;18.92;12.10;;;14.20;82.50;;;;;;5002263;28;20046;-70
2022/04/13 06:54:40;;;;;;;16.13;10.98;;;14.40;81.70;;;;;;5002414;28;20557;-70
2022/04/13 06:57:05;;;;;;;15.75;11.75;;;14.50;81.50;;;;;;4999148;28;20041;-71
2022/04/13 06:59:31;;;;;;;18.33;12.05;;;14.60;81.40;;;;;;5005287;28;20045;-71
2022/04/13 07:01:57;;;;;;;18.38;11.85;;;14.60;81.20;;;;;;5005239;28;20583;-70
2022/04/13 07:04:22;;;;;;;18.40;12.20;;;14.60;81.00;;;;;;4998379;28;20037;-71
2022/04/13 07:06:48;;;;;;;17.23;12.10;;;14.70;80.90;;;;;;4997861;28;20042;-71
2022/04/13 07:09:14;;;;;;;18.10;12.93;;;14.60;80.90;;;;;;5001150;28;20030;-70
2022/04/13 07:11:39;;;;;;;19.75;13.18;;;14.60;80.70;;;;;;5007516;28;20160;-71
2022/04/13 07:14:05;;;;;;;20.27;13.70;;;14.60;81.00;;;;;;5004996;28;20577;-71
2022/04/13 07:16:31;;;;;;;23.00;15.10;;;14.60;80.90;;;;;;4999893;28;20124;-72
2022/04/13 07:18:57;;;;;;;20.52;15.18;;;14.50;81.20;;;;;;5000449;28;20429;-73
2022/04/13 07:21:24;;;;;;;24.30;16.98;;;14.40;81.80;;;;;;5001678;28;20065;-74
2022/04/13 07:23:49;;;;;;;27.55;17.30;;;14.30;82.20;;;;;;5003856;28;20333;-72
2022/04/13 07:26:15;;;;;;;24.08;17.73;;;14.20;82.50;;;;;;5004864;28;21701;-72
2022/04/13 07:28:41;;;;;;;24.65;16.95;;;14.20;82.80;;;;;;5003121;28;20030;-72
2022/04/13 07:31:07;;;;;;;21.17;16.13;;;14.20;82.70;;;;;;5009029;28;20128;-72
2022/04/13 07:33:33;;;;;;;24.85;16.25;;;14.20;82.80;;;;;;5005856;28;20029;-71
2022/04/13 07:35:58;;;;;;;23.77;16.90;;;14.10;82.80;;;;;;5002752;28;20030;-71
2022/04/13 07:38:24;;;;;;;23.58;17.98;;;14.20;83.00;;;;;;4999190;28;20611;-72
2022/04/13 07:40:50;;;;;;;25.77;18.40;;;14.10;83.10;;;;;;5007328;28;20056;-72
2022/04/13 07:43:16;;;;;;;22.85;18.92;;;14.10;83.50;;;;;;4999091;28;20030;-72
2022/04/13 07:45:43;;;;;;;21.30;16.65;;;14.20;83.10;;;;;;5000116;28;20144;-71
2022/04/13 07:48:09;;;;;;;21.50;18.05;;;14.20;83.20;;;;;;5000932;28;20034;-72
2022/04/13 07:50:34;;;;;;;22.95;18.50;;;14.30;83.10;;;;;;5002023;28;20038;-72
2022/04/13 07:53:00;;;;;;;26.50;18.40;;;14.20;83.10;;;;;;4998929;28;20553;-72
2022/04/13 07:55:26;;;;;;;24.77;18.42;;;14.30;82.80;;;;;;5008255;28;20037;-72
2022/04/13 07:57:51;;;;;;;24.90;19.30;;;14.30;82.50;;;;;;5002190;28;20662;-72
2022/04/13 08:00:17;;;;;;;30.65;21.63;;;14.20;82.70;;;;;;4998601;28;20506;-71
2022/04/13 08:02:44;;;;;;;27.25;20.45;;;14.10;83.00;;;;;;4998666;28;20517;-72
2022/04/13 08:05:13;;;;;;;28.77;20.60;;;14.10;83.50;;;;;;4999549;28;20132;-72
2022/04/13 08:07:39;;;;;;;30.35;22.10;;;14.10;83.70;;;;;;5010566;28;20123;-71
2022/04/13 08:10:06;;;;;;;28.63;23.15;;;14.10;83.80;;;;;;5011132;28;20049;-72
2022/04/13 08:12:32;;;;;;;30.88;23.55;;;14.10;83.70;;;;;;5003410;28;20032;-72
2022/04/13 08:14:59;;;;;;;27.70;23.42;;;14.10;83.60;;;;;;5004004;28;20037;-72
2022/04/13 08:17:26;;;;;;;26.60;23.48;;;14.20;83.60;;;;;;5000511;28;20370;-72
2022/04/13 08:19:53;;;;;;;29.40;22.83;;;14.20;83.30;;;;;;5002056;28;20053;-71
2022/04/13 08:22:23;;;;;;;27.35;23.23;;;14.30;83.30;;;;;;5005401;28;20424;-71
2022/04/13 08:24:49;;;;;;;30.33;21.98;;;14.30;83.20;;;;;;5000011;28;20392;-71
2022/04/13 08:27:15;;;;;;;31.27;23.52;;;14.30;83.30;;;;;;5001665;28;20037;-72
2022/04/13 08:29:40;;;;;;;32.33;23.80;;;14.40;83.00;;;;;;5000663;28;20112;-72
2022/04/13 08:32:06;;;;;;;29.25;22.75;;;14.40;82.90;;;;;;5008155;28;20060;-72
2022/04/13 08:34:32;;;;;;;31.30;24.77;;;14.50;83.10;;;;;;5007869;28;20359;-72
2022/04/13 08:36:58;;;;;;;29.20;25.55;;;14.60;82.50;;;;;;5030447;28;20030;-71
2022/04/13 08:39:23;;;;;;;32.03;25.38;;;14.60;82.40;;;;;;5019734;28;20106;-71
2022/04/13 08:41:55;;;;;;;32.08;24.75;;;14.70;81.80;;;;;;5014209;28;20124;-72
2022/04/13 08:44:38;;;;;;;31.77;24.88;;;14.70;81.50;;;;;;5007212;28;20038;-72
2022/04/13 08:47:11;;;;;;;29.58;23.65;;;14.80;81.30;;;;;;5005986;28;20059;-72
2022/04/13 08:49:40;;;;;;;28.00;23.08;;;15.00;81.10;;;;;;5001937;28;20071;-73
2022/04/13 08:52:08;;;;;;;27.58;23.45;;;15.10;80.80;;;;;;5005212;28;20037;-71
2022/04/13 08:55:04;;;;;;;29.92;25.48;;;15.20;80.50;;;;;;4999257;28;20041;-71
2022/04/13 08:57:30;;;;;;;;;;;15.30;80.20;;;;;;5003951;28;20440;-72
2022/04/13 09:00:08;;;;;;;32.33;24.05;;;15.50;79.40;;;;;;5018188;28;20003;-71
2022/04/13 09:02:44;;;;;;;28.05;22.20;;;15.50;78.90;;;;;;5013890;28;20076;-72
2022/04/13 09:05:14;;;;;;;30.20;22.88;;;15.60;78.60;;;;;;5019322;28;20037;-72
2022/04/13 09:07:41;;;;;;;29.77;24.05;;;15.70;78.30;;;;;;5008424;28;20041;-73
2022/04/13 09:10:12;;;;;;;28.67;21.40;;;15.80;78.00;;;;;;5001860;28;20038;-73
2022/04/13 09:12:38;;;;;;;24.75;19.58;;;15.90;77.60;;;;;;5005612;28;20033;-73
2022/04/13 09:15:05;;;;;;;26.40;20.73;;;16.10;77.20;;;;;;5001048;28;20062;-72
2022/04/13 09:17:31;;;;;;;29.75;20.60;;;16.10;77.00;;;;;;5004831;28;20034;-72
2022/04/13 09:19:59;;;;;;;28.95;22.23;;;16.10;76.60;;;;;;5001059;28;20046;-72
2022/04/13 09:22:25;;;;;;;22.55;19.25;;;16.10;76.40;;;;;;5004348;28;20128;-72
2022/04/13 09:24:52;;;;;;;29.58;21.88;;;16.20;76.90;;;;;;4998790;28;20536;-72
2022/04/13 09:27:20;;;;;;;30.33;22.08;;;16.20;76.40;;;;;;4998885;28;20045;-72
2022/04/13 09:29:47;;;;;;;26.20;20.35;;;16.10;76.50;;;;;;5001553;28;20038;-72
2022/04/13 09:32:14;;;;;;;26.48;20.67;;;16.00;76.50;;;;;;5003653;28;20489;-72
2022/04/13 09:34:40;;;;;;;28.38;22.00;;;16.10;76.70;;;;;;5005506;28;20057;-72
2022/04/13 09:37:07;;;;;;;25.63;20.88;;;16.00;76.60;;;;;;5008893;28;20457;-72
2022/04/13 09:39:33;;;;;;;24.45;20.92;;;15.80;77.10;;;;;;5007386;28;20072;-72
2022/04/13 09:42:02;;;;;;;25.70;19.95;;;15.70;77.40;;;;;;5010082;28;20029;-72
2022/04/13 09:44:30;;;;;;;26.60;20.60;;;15.80;77.80;;;;;;5006046;28;20037;-71
2022/04/13 09:47:08;;;;;;;27.58;21.38;;;15.70;77.60;;;;;;5001306;28;20049;-71
2022/04/13 09:49:34;;;;;;;28.15;21.88;;;15.60;77.70;;;;;;5002413;28;20280;-71
2022/04/13 09:52:00;;;;;;;25.70;21.05;;;15.50;78.50;;;;;;5002390;28;20038;-72
2022/04/13 09:54:27;;;;;;;27.45;21.20;;;15.60;78.50;;;;;;5003186;28;20034;-72
2022/04/13 09:56:53;;;;;;;23.77;20.60;;;15.70;77.90;;;;;;5004466;28;20034;-71
2022/04/13 09:59:30;;;;;;;23.77;18.55;;;15.90;77.60;;;;;;5007933;28;20065;-71
2022/04/13 10:01:57;;;;;;;21.58;18.13;;;16.10;76.30;;;;;;5007447;28;20021;-72
2022/04/13 10:04:23;;;;;;;23.75;18.33;;;16.10;75.60;;;;;;5005754;28;20345;-72
2022/04/13 10:06:49;;;;;;;20.48;17.95;;;16.40;74.90;;;;;;5001760;28;20627;-72
2022/04/13 10:09:15;;;;;;;21.10;17.35;;;16.60;74.20;;;;;;5000268;28;20219;-72
2022/04/13 10:11:58;;;;;;;22.08;17.85;;;16.60;73.30;;;;;;5011167;28;20040;-72
2022/04/13 10:14:23;;;;;;;22.40;17.20;;;16.80;73.00;;;;;;4994614;28;20037;-72
2022/04/13 10:16:51;;;;;;;22.58;16.13;;;16.80;72.10;;;;;;5007303;28;20036;-72
2022/04/13 10:19:20;;;;;;;21.27;16.92;;;16.70;72.20;;;;;;5001762;28;20037;-73
2022/04/13 10:21:51;;;;;;;23.20;17.15;;;16.80;73.00;;;;;;4999492;28;20040;-72
2022/04/13 10:24:19;;;;;;;25.48;18.23;;;16.80;72.70;;;;;;5003572;28;20040;-72
2022/04/13 10:27:15;;;;;;;25.50;17.67;;;16.90;72.90;;;;;;5005753;28;20033;-72
2022/04/13 10:29:43;;;;;;;20.10;15.02;;;17.00;72.00;;;;;;4999595;28;20472;-71
2022/04/13 10:32:09;;;;;;;22.58;15.82;;;17.10;72.70;;;;;;4998497;28;20765;-72
2022/04/13 10:34:37;;;;;;;20.90;15.25;;;17.20;71.90;;;;;;4999849;28;20061;-71
2022/04/13 10:37:04;;;;;;;19.25;13.35;;;17.20;71.20;;;;;;5006052;28;20064;-72
2022/04/13 10:39:30;;;;;;;19.13;13.48;;;17.30;70.50;;;;;;5000997;28;20121;-72
2022/04/13 10:41:58;;;;;;;20.02;13.05;;;17.40;71.30;;;;;;5006414;28;20050;-72
2022/04/13 10:44:34;;;;;;;22.70;14.32;;;17.70;70.50;;;;;;5003796;28;20176;-72
2022/04/13 10:47:08;;;;;;;18.52;13.38;;;17.80;69.20;;;;;;5004143;28;20038;-72
2022/04/13 10:49:40;;;;;;;19.50;13.27;;;18.10;67.30;;;;;;5004763;28;20084;-72
2022/04/13 10:52:20;;;;;;;17.25;12.30;;;18.20;68.40;;;;;;5003382;28;20064;-72
2022/04/13 10:54:50;;;;;;;19.33;13.48;;;18.40;67.10;;;;;;5000738;28;20068;-72
2022/04/13 10:57:18;;;;;;;15.02;12.50;;;18.60;67.00;;;;;;5007151;28;20665;-72
2022/04/13 10:59:56;;;;;;;17.92;12.43;;;18.80;66.20;;;;;;5003394;28;20033;-73
2022/04/13 11:02:25;;;;;;;16.25;12.13;;;19.10;64.70;;;;;;4995441;28;20053;-72
2022/04/13 11:04:52;;;;;;;18.60;12.38;;;19.20;64.40;;;;;;4997974;28;20084;-73
2022/04/13 11:07:18;;;;;;;18.25;10.93;;;19.20;63.30;;;;;;5008248;28;20033;-71
2022/04/13 11:09:46;;;;;;;18.42;11.88;;;19.30;64.80;;;;;;5012334;28;20053;-73
2022/04/13 11:12:12;;;;;;;17.98;12.15;;;19.50;63.30;;;;;;5004404;28;20553;-72
2022/04/13 11:15:03;;;;;;;18.70;13.40;;;19.50;63.20;;;;;;4999933;28;20034;-72
2022/04/13 11:17:30;;;;;;;20.58;12.20;;;19.40;64.50;;;;;;5002933;28;20034;-73
2022/04/13 11:20:16;;;;;;;18.35;12.00;;;19.40;64.10;;;;;;5003930;28;20099;-73
2022/04/13 11:22:42;;;;;;;19.63;12.45;;;19.30;63.40;;;;;;4999043;28;20050;-72
2022/04/13 11:25:07;;;;;;;18.95;13.13;;;19.10;64.10;;;;;;5008632;28;20041;-72
2022/04/13 11:27:53;;;;;;;23.65;13.55;;;18.80;64.90;;;;;;5005704;28;20044;-73
2022/04/13 11:30:19;;;;;;;17.17;12.80;;;18.70;65.60;;;;;;5005657;28;20041;-72
2022/04/13 11:32:46;;;;;;;22.50;13.77;;;18.60;65.70;;;;;;5008580;28;20034;-72
2022/04/13 11:35:25;;;;;;;17.98;13.50;;;18.60;65.70;;;;;;5011512;28;20029;-71
2022/04/13 11:38:08;;;;;;;20.48;13.98;;;18.50;65.90;;;;;;5020350;28;20054;-73
2022/04/13 11:40:33;;;;;;;20.48;13.00;;;18.30;67.00;;;;;;5009691;28;20075;-71
2022/04/13 11:43:02;;;;;;;18.50;12.88;;;18.40;67.00;;;;;;5017829;28;20041;-71
2022/04/13 11:45:28;;;;;;;18.17;12.90;;;18.50;66.70;;;;;;5016971;28;20029;-73
2022/04/13 11:47:56;;;;;;;20.20;13.85;;;18.60;65.80;;;;;;5007787;28;20049;-72
2022/04/13 11:50:23;;;;;;;44.38;36.05;;;18.50;66.40;;;;;;5014906;28;20109;-72
2022/04/13 11:53:10;;;;;;;20.25;15.65;;;18.60;66.20;;;;;;5003515;28;20528;-74
2022/04/13 11:55:43;;;;;;;23.70;17.10;;;18.60;66.30;;;;;;5002196;28;20038;-73
2022/04/13 11:58:09;;;;;;;18.25;12.25;;;18.70;65.60;;;;;;5008628;28;22844;-72
2022/04/13 12:00:52;;;;;;;20.30;12.00;;;18.80;65.60;;;;;;5009909;28;20037;-72
2022/04/13 12:03:35;;;;;;;17.55;11.70;;;18.90;65.10;;;;;;5003650;28;20042;-72
2022/04/13 12:06:04;;;;;;;16.35;11.32;;;18.90;65.30;;;;;;5010829;28;20038;-72
2022/04/13 12:08:35;;;;;;;15.85;11.45;;;19.00;64.50;;;;;;5013728;28;20087;-72
2022/04/13 12:11:04;;;;;;;17.13;11.27;;;19.10;64.70;;;;;;5008237;28;20068;-72
2022/04/13 12:13:43;;;;;;;15.55;10.80;;;19.20;63.40;;;;;;5006668;28;20498;-72
2022/04/13 12:16:09;;;;;;;16.42;11.85;;;19.30;63.50;;;;;;5017279;28;20116;-73
2022/04/13 12:18:35;;;;;;;15.57;10.75;;;19.30;62.10;;;;;;5024377;28;20040;-72
2022/04/13 12:21:12;;;;;;;15.00;11.30;;;19.40;62.70;;;;;;5017597;28;20072;-73
2022/04/13 12:23:39;;;;;;;15.43;11.52;;;19.60;62.60;;;;;;5023591;28;20048;-72
2022/04/13 12:26:06;;;;;;;13.77;10.75;;;19.60;61.80;;;;;;5019203;28;20033;-73
2022/04/13 12:28:33;;;;;;;15.07;10.18;;;19.60;61.80;;;;;;5017336;28;20029;-72
2022/04/13 12:31:09;;;;;;;12.63;10.02;;;19.60;61.70;;;;;;5020666;28;20491;-72